sensor_id;sensor_type;location;lat;lon;timestamp;P1;durP1;ratioP1;P2;durP2;ratioP2
28086;SDS011;15392;48.912;8.380;2022-12-20T00:01:14;5.65;;;5.15;;
28086;SDS011;15392;48.912;8.380;2022-12-20T00:03:43;4.38;;;4.07;;
28086;SDS011;15392;48.912;8.380;2022-12-20T00:06:09;3.70;;;3.50;;
28086;SDS011;15392;48.912;8.380;2022-12-20T00:08:37;3.67;;;3.47;;
28086;SDS011;15392;48.912;8.380;2022-12-20T00:11:03;3.05;;;2.95;;
28086;SDS011;15392;48.912;8.380;2022-12-20T00:13:31;2.80;;;2.70;;
28086;SDS011;15392;48.912;8.380;2022-12-20T00:16:04;2.60;;;2.50;;
28086;SDS011;15392;48.912;8.380;2022-12-20T00:18:36;2.28;;;2.17;;
28086;SDS011;15392;48.912;8.380;2022-12-20T00:21:03;2.42;;;2.33;;
28086;SDS011;15392;48.912;8.380;2022-12-20T00:23:31;2.72;;;2.63;;
28086;SDS011;15392;48.912;8.380;2022-12-20T00:26:11;2.85;;;2.75;;
28086;SDS011;15392;48.912;8.380;2022-12-20T00:28:43;2.58;;;2.47;;
28086;SDS011;15392;48.912;8.380;2022-12-20T00:31:09;2.13;;;2.03;;
28086;SDS011;15392;48.912;8.380;2022-12-20T00:33:38;2.40;;;2.30;;
28086;SDS011;15392;48.912;8.380;2022-12-20T00:36:05;2.35;;;2.25;;
28086;SDS011;15392;48.912;8.380;2022-12-20T00:38:32;2.90;;;2.80;;
28086;SDS011;15392;48.912;8.380;2022-12-20T00:41:02;3.15;;;2.97;;
28086;SDS011;15392;48.912;8.380;2022-12-20T00:43:37;2.72;;;2.63;;
28086;SDS011;15392;48.912;8.380;2022-12-20T00:46:05;3.30;;;3.10;;
28086;SDS011;15392;48.912;8.380;2022-12-20T00:48:32;2.75;;;2.58;;
28086;SDS011;15392;48.912;8.380;2022-12-20T00:50:59;2.35;;;2.25;;
28086;SDS011;15392;48.912;8.380;2022-12-20T00:53:33;2.50;;;2.40;;
28086;SDS011;15392;48.912;8.380;2022-12-20T00:56:00;2.50;;;2.40;;
28086;SDS011;15392;48.912;8.380;2022-12-20T00:58:26;2.13;;;2.03;;
28086;SDS011;15392;48.912;8.380;2022-12-20T01:00:52;2.30;;;2.20;;
28086;SDS011;15392;48.912;8.380;2022-12-20T01:03:19;1.92;;;1.83;;
28086;SDS011;15392;48.912;8.380;2022-12-20T01:05:49;2.08;;;1.98;;
28086;SDS011;15392;48.912;8.380;2022-12-20T01:08:19;2.20;;;2.10;;
28086;SDS011;15392;48.912;8.380;2022-12-20T01:10:46;2.33;;;2.22;;
28086;SDS011;15392;48.912;8.380;2022-12-20T01:13:12;2.50;;;2.40;;
28086;SDS011;15392;48.912;8.380;2022-12-20T01:15:38;2.70;;;2.60;;
28086;SDS011;15392;48.912;8.380;2022-12-20T01:18:03;2.80;;;2.60;;
28086;SDS011;15392;48.912;8.380;2022-12-20T01:20:29;3.30;;;3.10;;
28086;SDS011;15392;48.912;8.380;2022-12-20T01:22:55;2.67;;;2.58;;
28086;SDS011;15392;48.912;8.380;2022-12-20T01:25:21;3.03;;;2.92;;
28086;SDS011;15392;48.912;8.380;2022-12-20T01:27:46;2.63;;;2.53;;
28086;SDS011;15392;48.912;8.380;2022-12-20T01:30:12;2.63;;;2.53;;
28086;SDS011;15392;48.912;8.380;2022-12-20T01:32:38;2.58;;;2.47;;
28086;SDS011;15392;48.912;8.380;2022-12-20T01:35:03;2.28;;;2.17;;
28086;SDS011;15392;48.912;8.380;2022-12-20T01:37:30;2.72;;;2.63;;
28086;SDS011;15392;48.912;8.380;2022-12-20T01:39:56;2.70;;;2.60;;
28086;SDS011;15392;48.912;8.380;2022-12-20T01:42:22;2.55;;;2.45;;
28086;SDS011;15392;48.912;8.380;2022-12-20T01:44:49;2.15;;;2.05;;
28086;SDS011;15392;48.912;8.380;2022-12-20T01:47:20;2.28;;;2.17;;
28086;SDS011;15392;48.912;8.380;2022-12-20T01:49:47;1.60;;;1.60;;
28086;SDS011;15392;48.912;8.380;2022-12-20T01:52:25;1.92;;;1.83;;
28086;SDS011;15392;48.912;8.380;2022-12-20T01:57:47;1.80;;;1.70;;
28086;SDS011;15392;48.912;8.380;2022-12-20T02:00:17;2.15;;;2.05;;
28086;SDS011;15392;48.912;8.380;2022-12-20T02:02:44;2.33;;;2.22;;
28086;SDS011;15392;48.912;8.380;2022-12-20T02:05:12;2.33;;;2.22;;
28086;SDS011;15392;48.912;8.380;2022-12-20T02:07:39;2.10;;;2.00;;
28086;SDS011;15392;48.912;8.380;2022-12-20T02:10:08;1.98;;;1.88;;
28086;SDS011;15392;48.912;8.380;2022-12-20T02:12:39;2.10;;;2.00;;
28086;SDS011;15392;48.912;8.380;2022-12-20T02:32:21;2.30;;;2.20;;
28086;SDS011;15392;48.912;8.380;2022-12-20T02:34:51;2.42;;;2.33;;
28086;SDS011;15392;48.912;8.380;2022-12-20T02:37:18;2.30;;;2.20;;
28086;SDS011;15392;48.912;8.380;2022-12-20T02:39:44;2.45;;;2.35;;
28086;SDS011;15392;48.912;8.380;2022-12-20T02:42:11;2.20;;;2.10;;
28086;SDS011;15392;48.912;8.380;2022-12-20T02:44:48;2.28;;;2.17;;
28086;SDS011;15392;48.912;8.380;2022-12-20T02:50:34;2.42;;;2.33;;
28086;SDS011;15392;48.912;8.380;2022-12-20T02:53:04;2.22;;;2.13;;
28086;SDS011;15392;48.912;8.380;2022-12-20T02:55:40;2.40;;;2.30;;
28086;SDS011;15392;48.912;8.380;2022-12-20T02:58:17;2.30;;;2.20;;
28086;SDS011;15392;48.912;8.380;2022-12-20T03:01:08;2.10;;;2.00;;
28086;SDS011;15392;48.912;8.380;2022-12-20T03:03:53;2.38;;;2.28;;
28086;SDS011;15392;48.912;8.380;2022-12-20T03:06:21;2.58;;;2.47;;
28086;SDS011;15392;48.912;8.380;2022-12-20T03:08:47;2.28;;;2.17;;
28086;SDS011;15392;48.912;8.380;2022-12-20T03:11:13;2.50;;;2.35;;
28086;SDS011;15392;48.912;8.380;2022-12-20T03:13:39;2.63;;;2.53;;
28086;SDS011;15392;48.912;8.380;2022-12-20T03:16:04;2.42;;;2.33;;
28086;SDS011;15392;48.912;8.380;2022-12-20T03:18:30;2.60;;;2.50;;
28086;SDS011;15392;48.912;8.380;2022-12-20T03:20:56;2.25;;;2.15;;
28086;SDS011;15392;48.912;8.380;2022-12-20T03:23:22;2.80;;;2.70;;
28086;SDS011;15392;48.912;8.380;2022-12-20T03:25:48;3.97;;;2.55;;
28086;SDS011;15392;48.912;8.380;2022-12-20T03:28:14;2.28;;;2.17;;
28086;SDS011;15392;48.912;8.380;2022-12-20T03:30:39;2.33;;;2.22;;
28086;SDS011;15392;48.912;8.380;2022-12-20T03:33:05;2.38;;;2.28;;
28086;SDS011;15392;48.912;8.380;2022-12-20T03:35:31;2.20;;;2.10;;
28086;SDS011;15392;48.912;8.380;2022-12-20T03:37:56;2.22;;;2.13;;
28086;SDS011;15392;48.912;8.380;2022-12-20T03:40:22;2.42;;;2.33;;
28086;SDS011;15392;48.912;8.380;2022-12-20T03:42:48;2.40;;;2.30;;
28086;SDS011;15392;48.912;8.380;2022-12-20T03:45:14;2.38;;;2.28;;
28086;SDS011;15392;48.912;8.380;2022-12-20T03:47:39;2.20;;;2.10;;
28086;SDS011;15392;48.912;8.380;2022-12-20T03:50:05;2.10;;;2.00;;
28086;SDS011;15392;48.912;8.380;2022-12-20T03:52:32;1.40;;;1.40;;
28086;SDS011;15392;48.912;8.380;2022-12-20T03:54:59;1.75;;;1.67;;
28086;SDS011;15392;48.912;8.380;2022-12-20T03:57:24;1.90;;;1.80;;
28086;SDS011;15392;48.912;8.380;2022-12-20T03:59:50;1.50;;;1.50;;
28086;SDS011;15392;48.912;8.380;2022-12-20T04:02:18;1.85;;;1.77;;
28086;SDS011;15392;48.912;8.380;2022-12-20T04:04:45;1.90;;;1.80;;
28086;SDS011;15392;48.912;8.380;2022-12-20T04:07:11;1.77;;;1.67;;
28086;SDS011;15392;48.912;8.380;2022-12-20T04:09:37;1.48;;;1.48;;
28086;SDS011;15392;48.912;8.380;2022-12-20T04:12:02;1.60;;;1.45;;
28086;SDS011;15392;48.912;8.380;2022-12-20T04:14:28;1.75;;;1.65;;
28086;SDS011;15392;48.912;8.380;2022-12-20T04:16:54;1.80;;;1.70;;
28086;SDS011;15392;48.912;8.380;2022-12-20T04:19:20;1.80;;;1.70;;
28086;SDS011;15392;48.912;8.380;2022-12-20T04:21:45;2.13;;;2.03;;
28086;SDS011;15392;48.912;8.380;2022-12-20T04:24:11;1.83;;;1.73;;
28086;SDS011;15392;48.912;8.380;2022-12-20T04:26:37;1.73;;;1.73;;
28086;SDS011;15392;48.912;8.380;2022-12-20T04:29:03;2.40;;;2.20;;
28086;SDS011;15392;48.912;8.380;2022-12-20T04:31:28;1.95;;;1.85;;
28086;SDS011;15392;48.912;8.380;2022-12-20T04:33:54;2.17;;;2.08;;
28086;SDS011;15392;48.912;8.380;2022-12-20T04:36:20;2.58;;;2.47;;
28086;SDS011;15392;48.912;8.380;2022-12-20T04:38:46;2.22;;;2.13;;
28086;SDS011;15392;48.912;8.380;2022-12-20T04:41:12;2.22;;;2.13;;
28086;SDS011;15392;48.912;8.380;2022-12-20T04:43:56;2.38;;;2.28;;
28086;SDS011;15392;48.912;8.380;2022-12-20T04:46:23;2.53;;;2.42;;
28086;SDS011;15392;48.912;8.380;2022-12-20T04:48:50;2.35;;;2.25;;
28086;SDS011;15392;48.912;8.380;2022-12-20T04:51:16;2.03;;;1.92;;
28086;SDS011;15392;48.912;8.380;2022-12-20T04:53:42;2.05;;;1.95;;
28086;SDS011;15392;48.912;8.380;2022-12-20T04:56:11;3.67;;;1.95;;
28086;SDS011;15392;48.912;8.380;2022-12-20T05:01:08;1.55;;;1.55;;
28086;SDS011;15392;48.912;8.380;2022-12-20T05:03:35;1.63;;;1.52;;
28086;SDS011;15392;48.912;8.380;2022-12-20T05:06:01;1.48;;;1.48;;
28086;SDS011;15392;48.912;8.380;2022-12-20T05:08:27;1.70;;;1.65;;
28086;SDS011;15392;48.912;8.380;2022-12-20T05:10:52;1.67;;;1.60;;
28086;SDS011;15392;48.912;8.380;2022-12-20T05:13:18;1.88;;;1.77;;
28086;SDS011;15392;48.912;8.380;2022-12-20T05:15:44;1.75;;;1.65;;
28086;SDS011;15392;48.912;8.380;2022-12-20T05:18:10;2.22;;;2.03;;
28086;SDS011;15392;48.912;8.380;2022-12-20T05:20:35;1.63;;;1.63;;
28086;SDS011;15392;48.912;8.380;2022-12-20T05:23:01;1.70;;;1.60;;
28086;SDS011;15392;48.912;8.380;2022-12-20T05:25:47;1.30;;;1.30;;
28086;SDS011;15392;48.912;8.380;2022-12-20T05:28:26;1.52;;;1.42;;
28086;SDS011;15392;48.912;8.380;2022-12-20T05:30:52;1.77;;;1.67;;
28086;SDS011;15392;48.912;8.380;2022-12-20T05:33:18;1.90;;;1.80;;
28086;SDS011;15392;48.912;8.380;2022-12-20T05:35:43;1.42;;;1.40;;
28086;SDS011;15392;48.912;8.380;2022-12-20T05:38:09;1.30;;;1.30;;
28086;SDS011;15392;48.912;8.380;2022-12-20T05:40:35;1.17;;;1.17;;
28086;SDS011;15392;48.912;8.380;2022-12-20T05:43:01;1.23;;;1.23;;
28086;SDS011;15392;48.912;8.380;2022-12-20T05:45:27;1.02;;;1.02;;
28086;SDS011;15392;48.912;8.380;2022-12-20T05:47:53;1.13;;;1.13;;
28086;SDS011;15392;48.912;8.380;2022-12-20T05:50:18;1.30;;;1.30;;
28086;SDS011;15392;48.912;8.380;2022-12-20T05:52:44;1.55;;;1.55;;
28086;SDS011;15392;48.912;8.380;2022-12-20T05:55:10;1.48;;;1.48;;
28086;SDS011;15392;48.912;8.380;2022-12-20T05:57:36;1.33;;;1.33;;
28086;SDS011;15392;48.912;8.380;2022-12-20T06:00:03;1.45;;;1.45;;
28086;SDS011;15392;48.912;8.380;2022-12-20T06:02:29;1.38;;;1.38;;
28086;SDS011;15392;48.912;8.380;2022-12-20T06:04:55;2.17;;;2.08;;
28086;SDS011;15392;48.912;8.380;2022-12-20T06:07:23;2.20;;;2.10;;
28086;SDS011;15392;48.912;8.380;2022-12-20T06:09:49;2.40;;;2.22;;
28086;SDS011;15392;48.912;8.380;2022-12-20T06:12:15;3.35;;;1.80;;
28086;SDS011;15392;48.912;8.380;2022-12-20T06:14:41;1.70;;;1.60;;
28086;SDS011;15392;48.912;8.380;2022-12-20T06:17:07;1.70;;;1.60;;
28086;SDS011;15392;48.912;8.380;2022-12-20T06:19:33;1.33;;;1.33;;
28086;SDS011;15392;48.912;8.380;2022-12-20T06:21:58;1.40;;;1.40;;
28086;SDS011;15392;48.912;8.380;2022-12-20T06:24:25;1.40;;;1.30;;
28086;SDS011;15392;48.912;8.380;2022-12-20T06:26:51;1.70;;;1.70;;
28086;SDS011;15392;48.912;8.380;2022-12-20T06:29:17;1.75;;;1.65;;
28086;SDS011;15392;48.912;8.380;2022-12-20T06:31:44;1.42;;;1.42;;
28086;SDS011;15392;48.912;8.380;2022-12-20T06:34:11;1.63;;;1.60;;
28086;SDS011;15392;48.912;8.380;2022-12-20T06:36:37;1.58;;;1.58;;
28086;SDS011;15392;48.912;8.380;2022-12-20T06:39:03;1.38;;;1.38;;
28086;SDS011;15392;48.912;8.380;2022-12-20T06:41:29;1.73;;;1.63;;
28086;SDS011;15392;48.912;8.380;2022-12-20T06:43:54;1.58;;;1.48;;
28086;SDS011;15392;48.912;8.380;2022-12-20T06:46:20;1.48;;;1.38;;
28086;SDS011;15392;48.912;8.380;2022-12-20T06:48:46;1.50;;;1.40;;
28086;SDS011;15392;48.912;8.380;2022-12-20T06:51:11;1.65;;;1.55;;
28086;SDS011;15392;48.912;8.380;2022-12-20T06:53:37;1.67;;;1.58;;
28086;SDS011;15392;48.912;8.380;2022-12-20T06:56:03;1.38;;;1.38;;
28086;SDS011;15392;48.912;8.380;2022-12-20T06:58:29;2.70;;;2.60;;
28086;SDS011;15392;48.912;8.380;2022-12-20T07:00:55;2.20;;;2.10;;
28086;SDS011;15392;48.912;8.380;2022-12-20T07:03:21;2.30;;;2.20;;
28086;SDS011;15392;48.912;8.380;2022-12-20T07:05:50;1.60;;;1.50;;
28086;SDS011;15392;48.912;8.380;2022-12-20T07:08:20;1.60;;;1.60;;
28086;SDS011;15392;48.912;8.380;2022-12-20T07:10:47;1.30;;;1.30;;
28086;SDS011;15392;48.912;8.380;2022-12-20T07:13:12;1.70;;;1.60;;
28086;SDS011;15392;48.912;8.380;2022-12-20T07:15:38;1.73;;;1.63;;
28086;SDS011;15392;48.912;8.380;2022-12-20T07:18:04;2.05;;;1.30;;
28086;SDS011;15392;48.912;8.380;2022-12-20T07:20:31;2.13;;;1.60;;
28086;SDS011;15392;48.912;8.380;2022-12-20T07:22:57;1.65;;;1.58;;
28086;SDS011;15392;48.912;8.380;2022-12-20T07:25:22;1.80;;;1.70;;
28086;SDS011;15392;48.912;8.380;2022-12-20T07:27:49;1.60;;;1.50;;
28086;SDS011;15392;48.912;8.380;2022-12-20T07:30:17;1.73;;;1.63;;
28086;SDS011;15392;48.912;8.380;2022-12-20T07:32:44;1.75;;;1.65;;
28086;SDS011;15392;48.912;8.380;2022-12-20T07:35:10;1.67;;;1.65;;
28086;SDS011;15392;48.912;8.380;2022-12-20T07:37:37;1.48;;;1.48;;
28086;SDS011;15392;48.912;8.380;2022-12-20T07:40:03;1.95;;;1.73;;
28086;SDS011;15392;48.912;8.380;2022-12-20T07:42:31;1.45;;;1.40;;
28086;SDS011;15392;48.912;8.380;2022-12-20T07:44:57;1.40;;;1.40;;
28086;SDS011;15392;48.912;8.380;2022-12-20T07:47:23;1.52;;;1.50;;
28086;SDS011;15392;48.912;8.380;2022-12-20T07:49:49;1.40;;;1.30;;
28086;SDS011;15392;48.912;8.380;2022-12-20T07:52:14;1.45;;;1.40;;
28086;SDS011;15392;48.912;8.380;2022-12-20T07:54:45;1.67;;;1.58;;
28086;SDS011;15392;48.912;8.380;2022-12-20T07:57:22;1.55;;;1.50;;
28086;SDS011;15392;48.912;8.380;2022-12-20T07:59:59;1.30;;;1.30;;
28086;SDS011;15392;48.912;8.380;2022-12-20T08:02:34;1.75;;;1.65;;
28086;SDS011;15392;48.912;8.380;2022-12-20T08:05:05;1.67;;;1.58;;
28086;SDS011;15392;48.912;8.380;2022-12-20T08:07:33;1.80;;;1.70;;
28086;SDS011;15392;48.912;8.380;2022-12-20T08:10:04;3.92;;;3.08;;
28086;SDS011;15392;48.912;8.380;2022-12-20T08:12:31;3.15;;;2.92;;
28086;SDS011;15392;48.912;8.380;2022-12-20T08:14:57;3.55;;;3.35;;
28086;SDS011;15392;48.912;8.380;2022-12-20T08:17:23;4.30;;;4.00;;
28086;SDS011;15392;48.912;8.380;2022-12-20T08:19:49;4.78;;;4.50;;
28086;SDS011;15392;48.912;8.380;2022-12-20T08:22:19;8.40;;;7.03;;
28086;SDS011;15392;48.912;8.380;2022-12-20T08:24:45;8.38;;;6.50;;
28086;SDS011;15392;48.912;8.380;2022-12-20T08:27:11;6.60;;;6.00;;
28086;SDS011;15392;48.912;8.380;2022-12-20T08:29:36;8.13;;;7.05;;
28086;SDS011;15392;48.912;8.380;2022-12-20T08:32:02;8.07;;;7.20;;
28086;SDS011;15392;48.912;8.380;2022-12-20T08:34:28;6.22;;;5.72;;
28086;SDS011;15392;48.912;8.380;2022-12-20T08:36:54;6.43;;;5.97;;
28086;SDS011;15392;48.912;8.380;2022-12-20T08:39:20;6.05;;;5.65;;
28086;SDS011;15392;48.912;8.380;2022-12-20T08:41:45;4.00;;;3.80;;
28086;SDS011;15392;48.912;8.380;2022-12-20T08:44:12;4.18;;;3.78;;
28086;SDS011;15392;48.912;8.380;2022-12-20T08:46:38;3.65;;;3.45;;
28086;SDS011;15392;48.912;8.380;2022-12-20T08:49:04;4.30;;;3.83;;
28086;SDS011;15392;48.912;8.380;2022-12-20T08:51:30;3.72;;;3.53;;
28086;SDS011;15392;48.912;8.380;2022-12-20T08:53:56;3.80;;;3.53;;
28086;SDS011;15392;48.912;8.380;2022-12-20T08:56:22;2.90;;;2.80;;
28086;SDS011;15392;48.912;8.380;2022-12-20T08:58:48;3.05;;;2.92;;
28086;SDS011;15392;48.912;8.380;2022-12-20T09:01:18;4.63;;;4.38;;
28086;SDS011;15392;48.912;8.380;2022-12-20T09:03:45;5.22;;;4.93;;
28086;SDS011;15392;48.912;8.380;2022-12-20T09:06:13;5.00;;;4.70;;
28086;SDS011;15392;48.912;8.380;2022-12-20T09:08:42;5.00;;;4.70;;
28086;SDS011;15392;48.912;8.380;2022-12-20T09:11:09;5.35;;;5.05;;
28086;SDS011;15392;48.912;8.380;2022-12-20T09:13:37;4.95;;;4.65;;
28086;SDS011;15392;48.912;8.380;2022-12-20T09:16:05;5.32;;;5.03;;
28086;SDS011;15392;48.912;8.380;2022-12-20T09:18:31;9.20;;;8.48;;
28086;SDS011;15392;48.912;8.380;2022-12-20T09:20:58;10.32;;;9.50;;
28086;SDS011;15392;48.912;8.380;2022-12-20T09:23:28;9.25;;;8.55;;
28086;SDS011;15392;48.912;8.380;2022-12-20T09:25:55;7.82;;;7.32;;
28086;SDS011;15392;48.912;8.380;2022-12-20T09:28:27;6.43;;;6.03;;
28086;SDS011;15392;48.912;8.380;2022-12-20T09:31:01;5.57;;;5.28;;
28086;SDS011;15392;48.912;8.380;2022-12-20T09:33:29;5.18;;;4.88;;
28086;SDS011;15392;48.912;8.380;2022-12-20T09:35:56;5.05;;;4.82;;
28086;SDS011;15392;48.912;8.380;2022-12-20T09:38:23;5.32;;;4.93;;
28086;SDS011;15392;48.912;8.380;2022-12-20T09:40:50;4.55;;;4.35;;
28086;SDS011;15392;48.912;8.380;2022-12-20T09:43:21;4.13;;;3.92;;
28086;SDS011;15392;48.912;8.380;2022-12-20T09:45:50;4.18;;;3.97;;
28086;SDS011;15392;48.912;8.380;2022-12-20T09:48:30;4.32;;;4.13;;
28086;SDS011;15392;48.912;8.380;2022-12-20T09:51:28;4.82;;;4.63;;
28086;SDS011;15392;48.912;8.380;2022-12-20T09:59:49;8.50;;;8.00;;
28086;SDS011;15392;48.912;8.380;2022-12-20T10:02:18;7.28;;;6.85;;
28086;SDS011;15392;48.912;8.380;2022-12-20T10:04:47;7.07;;;6.68;;
28086;SDS011;15392;48.912;8.380;2022-12-20T10:13:06;7.80;;;7.30;;
28086;SDS011;15392;48.912;8.380;2022-12-20T10:19:05;8.02;;;7.53;;
28086;SDS011;15392;48.912;8.380;2022-12-20T10:21:52;7.57;;;7.18;;
28086;SDS011;15392;48.912;8.380;2022-12-20T10:25:29;7.95;;;7.45;;
28086;SDS011;15392;48.912;8.380;2022-12-20T10:27:44;8.45;;;7.90;;
28086;SDS011;15392;48.912;8.380;2022-12-20T10:30:15;7.82;;;7.32;;
28086;SDS011;15392;48.912;8.380;2022-12-20T10:32:48;7.32;;;6.82;;
28086;SDS011;15392;48.912;8.380;2022-12-20T10:40:39;9.00;;;8.40;;
28086;SDS011;15392;48.912;8.380;2022-12-20T10:43:27;8.20;;;7.70;;
28086;SDS011;15392;48.912;8.380;2022-12-20T10:46:07;8.18;;;7.60;;
28086;SDS011;15392;48.912;8.380;2022-12-20T10:48:34;7.88;;;7.28;;
28086;SDS011;15392;48.912;8.380;2022-12-20T10:51:24;9.40;;;8.80;;
28086;SDS011;15392;48.912;8.380;2022-12-20T10:53:53;9.10;;;8.48;;
28086;SDS011;15392;48.912;8.380;2022-12-20T10:56:22;8.90;;;8.30;;
28086;SDS011;15392;48.912;8.380;2022-12-20T10:59:00;9.73;;;9.10;;
28086;SDS011;15392;48.912;8.380;2022-12-20T11:01:42;9.73;;;9.02;;
28086;SDS011;15392;48.912;8.380;2022-12-20T11:04:32;9.52;;;8.93;;
28086;SDS011;15392;48.912;8.380;2022-12-20T11:07:02;8.18;;;7.70;;
28086;SDS011;15392;48.912;8.380;2022-12-20T11:09:55;8.23;;;7.63;;
28086;SDS011;15392;48.912;8.380;2022-12-20T11:12:26;7.45;;;7.05;;
28086;SDS011;15392;48.912;8.380;2022-12-20T11:15:06;7.47;;;6.97;;
28086;SDS011;15392;48.912;8.380;2022-12-20T11:17:46;12.00;;;11.10;;
28086;SDS011;15392;48.912;8.380;2022-12-20T11:23:19;12.80;;;11.70;;
28086;SDS011;15392;48.912;8.380;2022-12-20T11:29:25;10.20;;;9.45;;
28086;SDS011;15392;48.912;8.380;2022-12-20T11:32:26;8.32;;;7.72;;
28086;SDS011;15392;48.912;8.380;2022-12-20T11:37:44;7.57;;;7.07;;
28086;SDS011;15392;48.912;8.380;2022-12-20T11:40:32;7.37;;;6.77;;
28086;SDS011;15392;48.912;8.380;2022-12-20T11:43:26;6.05;;;5.75;;
28086;SDS011;15392;48.912;8.380;2022-12-20T11:49:11;5.88;;;5.57;;
28086;SDS011;15392;48.912;8.380;2022-12-20T11:52:22;6.85;;;6.45;;
28086;SDS011;15392;48.912;8.380;2022-12-20T11:55:17;12.70;;;11.55;;
28086;SDS011;15392;48.912;8.380;2022-12-20T12:01:11;7.75;;;7.15;;
28086;SDS011;15392;48.912;8.380;2022-12-20T12:03:44;14.10;;;12.68;;
28086;SDS011;15392;48.912;8.380;2022-12-20T12:15:19;8.52;;;7.93;;
28086;SDS011;15392;48.912;8.380;2022-12-20T12:18:12;8.88;;;8.27;;
28086;SDS011;15392;48.912;8.380;2022-12-20T12:20:53;8.73;;;8.13;;
28086;SDS011;15392;48.912;8.380;2022-12-20T12:26:34;8.95;;;8.25;;
28086;SDS011;15392;48.912;8.380;2022-12-20T12:31:39;9.18;;;8.55;;
28086;SDS011;15392;48.912;8.380;2022-12-20T12:34:27;8.13;;;7.38;;
28086;SDS011;15392;48.912;8.380;2022-12-20T12:43:15;7.15;;;6.65;;
28086;SDS011;15392;48.912;8.380;2022-12-20T12:46:21;5.95;;;5.45;;
28086;SDS011;15392;48.912;8.380;2022-12-20T12:48:58;5.85;;;5.55;;
28086;SDS011;15392;48.912;8.380;2022-12-20T12:51:38;5.85;;;5.35;;
28086;SDS011;15392;48.912;8.380;2022-12-20T12:54:15;5.50;;;5.00;;
28086;SDS011;15392;48.912;8.380;2022-12-20T12:56:50;5.80;;;5.40;;
28086;SDS011;15392;48.912;8.380;2022-12-20T13:15:40;4.53;;;4.20;;
28086;SDS011;15392;48.912;8.380;2022-12-20T13:17:51;4.25;;;4.05;;
28086;SDS011;15392;48.912;8.380;2022-12-20T13:20:29;4.63;;;4.35;;
28086;SDS011;15392;48.912;8.380;2022-12-20T13:25:38;7.60;;;7.10;;
28086;SDS011;15392;48.912;8.380;2022-12-20T13:28:41;6.68;;;6.32;;
28086;SDS011;15392;48.912;8.380;2022-12-20T13:33:45;6.50;;;6.10;;
28086;SDS011;15392;48.912;8.380;2022-12-20T13:41:11;7.13;;;6.63;;
28086;SDS011;15392;48.912;8.380;2022-12-20T13:49:22;6.30;;;5.70;;
28086;SDS011;15392;48.912;8.380;2022-12-20T13:52:05;5.50;;;5.20;;
28086;SDS011;15392;48.912;8.380;2022-12-20T13:54:56;5.78;;;5.47;;
28086;SDS011;15392;48.912;8.380;2022-12-20T13:59:58;6.03;;;5.65;;
28086;SDS011;15392;48.912;8.380;2022-12-20T14:02:29;7.30;;;6.85;;
28086;SDS011;15392;48.912;8.380;2022-12-20T14:05:05;9.45;;;8.55;;
28086;SDS011;15392;48.912;8.380;2022-12-20T14:08:00;16.15;;;14.48;;
28086;SDS011;15392;48.912;8.380;2022-12-20T14:10:38;14.80;;;13.40;;
28086;SDS011;15392;48.912;8.380;2022-12-20T14:13:18;11.73;;;10.75;;
28086;SDS011;15392;48.912;8.380;2022-12-20T14:15:51;9.48;;;8.68;;
28086;SDS011;15392;48.912;8.380;2022-12-20T14:18:22;8.73;;;8.15;;
28086;SDS011;15392;48.912;8.380;2022-12-20T14:20:53;9.55;;;8.82;;
28086;SDS011;15392;48.912;8.380;2022-12-20T14:23:26;10.18;;;9.38;;
28086;SDS011;15392;48.912;8.380;2022-12-20T14:26:14;8.98;;;8.27;;
28086;SDS011;15392;48.912;8.380;2022-12-20T14:31:35;6.30;;;6.00;;
28086;SDS011;15392;48.912;8.380;2022-12-20T14:36:42;7.32;;;6.82;;
28086;SDS011;15392;48.912;8.380;2022-12-20T14:39:21;7.53;;;7.13;;
28086;SDS011;15392;48.912;8.380;2022-12-20T14:44:32;7.40;;;6.88;;
28086;SDS011;15392;48.912;8.380;2022-12-20T14:46:59;7.50;;;7.00;;
28086;SDS011;15392;48.912;8.380;2022-12-20T14:49:54;9.75;;;9.05;;
28086;SDS011;15392;48.912;8.380;2022-12-20T14:54:57;10.80;;;9.85;;
28086;SDS011;15392;48.912;8.380;2022-12-20T14:57:31;10.25;;;9.40;;
28086;SDS011;15392;48.912;8.380;2022-12-20T15:03:27;8.43;;;7.82;;
28086;SDS011;15392;48.912;8.380;2022-12-20T15:05:48;7.25;;;6.85;;
28086;SDS011;15392;48.912;8.380;2022-12-20T15:13:34;8.32;;;7.72;;
28086;SDS011;15392;48.912;8.380;2022-12-20T15:16:23;7.85;;;7.25;;
28086;SDS011;15392;48.912;8.380;2022-12-20T15:19:00;6.68;;;6.28;;
28086;SDS011;15392;48.912;8.380;2022-12-20T15:21:34;7.80;;;7.30;;
28086;SDS011;15392;48.912;8.380;2022-12-20T15:24:17;8.63;;;7.93;;
28086;SDS011;15392;48.912;8.380;2022-12-20T15:26:46;7.47;;;6.88;;
28086;SDS011;15392;48.912;8.380;2022-12-20T15:29:17;6.85;;;6.45;;
28086;SDS011;15392;48.912;8.380;2022-12-20T15:31:48;5.97;;;5.53;;
28086;SDS011;15392;48.912;8.380;2022-12-20T15:34:26;6.75;;;6.25;;
28086;SDS011;15392;48.912;8.380;2022-12-20T15:37:02;10.25;;;9.52;;
28086;SDS011;15392;48.912;8.380;2022-12-20T15:39:30;9.18;;;8.52;;
28086;SDS011;15392;48.912;8.380;2022-12-20T15:41:57;8.73;;;8.13;;
28086;SDS011;15392;48.912;8.380;2022-12-20T15:44:26;6.60;;;6.20;;
28086;SDS011;15392;48.912;8.380;2022-12-20T15:46:54;5.25;;;4.93;;
28086;SDS011;15392;48.912;8.380;2022-12-20T15:49:21;4.72;;;4.50;;
28086;SDS011;15392;48.912;8.380;2022-12-20T15:56:59;5.88;;;5.50;;
28086;SDS011;15392;48.912;8.380;2022-12-20T15:59:29;4.80;;;4.40;;
28086;SDS011;15392;48.912;8.380;2022-12-20T16:01:55;4.78;;;4.57;;
28086;SDS011;15392;48.912;8.380;2022-12-20T16:04:21;6.82;;;6.35;;
28086;SDS011;15392;48.912;8.380;2022-12-20T16:06:48;7.13;;;6.63;;
28086;SDS011;15392;48.912;8.380;2022-12-20T16:09:15;6.70;;;6.30;;
28086;SDS011;15392;48.912;8.380;2022-12-20T16:11:42;6.28;;;5.88;;
28086;SDS011;15392;48.912;8.380;2022-12-20T16:14:14;4.78;;;4.47;;
28086;SDS011;15392;48.912;8.380;2022-12-20T16:16:42;4.22;;;4.03;;
28086;SDS011;15392;48.912;8.380;2022-12-20T16:19:09;4.30;;;4.00;;
28086;SDS011;15392;48.912;8.380;2022-12-20T16:21:45;3.83;;;3.63;;
28086;SDS011;15392;48.912;8.380;2022-12-20T16:24:15;3.70;;;3.40;;
28086;SDS011;15392;48.912;8.380;2022-12-20T16:26:44;3.07;;;2.87;;
28086;SDS011;15392;48.912;8.380;2022-12-20T16:29:12;3.22;;;3.08;;
28086;SDS011;15392;48.912;8.380;2022-12-20T16:31:39;3.50;;;3.30;;
28086;SDS011;15392;48.912;8.380;2022-12-20T16:34:09;3.33;;;3.13;;
28086;SDS011;15392;48.912;8.380;2022-12-20T16:36:38;2.75;;;2.55;;
28086;SDS011;15392;48.912;8.380;2022-12-20T16:39:04;2.65;;;2.10;;
28086;SDS011;15392;48.912;8.380;2022-12-20T16:41:31;1.40;;;1.40;;
28086;SDS011;15392;48.912;8.380;2022-12-20T16:43:58;1.90;;;1.80;;
28086;SDS011;15392;48.912;8.380;2022-12-20T16:46:27;1.83;;;1.80;;
28086;SDS011;15392;48.912;8.380;2022-12-20T16:48:54;1.50;;;1.40;;
28086;SDS011;15392;48.912;8.380;2022-12-20T16:51:26;2.25;;;1.25;;
28086;SDS011;15392;48.912;8.380;2022-12-20T16:53:59;1.35;;;1.35;;
28086;SDS011;15392;48.912;8.380;2022-12-20T16:56:28;1.45;;;1.40;;
28086;SDS011;15392;48.912;8.380;2022-12-20T16:58:55;0.82;;;0.82;;
28086;SDS011;15392;48.912;8.380;2022-12-20T17:01:35;1.40;;;1.30;;
28086;SDS011;15392;48.912;8.380;2022-12-20T17:04:03;1.00;;;0.90;;
28086;SDS011;15392;48.912;8.380;2022-12-20T17:06:31;1.75;;;1.38;;
28086;SDS011;15392;48.912;8.380;2022-12-20T17:08:57;2.15;;;1.80;;
28086;SDS011;15392;48.912;8.380;2022-12-20T17:11:24;1.85;;;1.75;;
28086;SDS011;15392;48.912;8.380;2022-12-20T17:13:54;1.55;;;1.55;;
28086;SDS011;15392;48.912;8.380;2022-12-20T17:16:21;1.42;;;1.40;;
28086;SDS011;15392;48.912;8.380;2022-12-20T17:18:48;1.30;;;1.30;;
28086;SDS011;15392;48.912;8.380;2022-12-20T17:23:51;1.25;;;1.25;;
28086;SDS011;15392;48.912;8.380;2022-12-20T17:26:27;1.17;;;1.17;;
28086;SDS011;15392;48.912;8.380;2022-12-20T17:28:54;1.30;;;1.30;;
28086;SDS011;15392;48.912;8.380;2022-12-20T17:31:28;3.13;;;2.95;;